createdAt,value
2023-05-22T00:02:08.736Z,48.20
2023-05-22T00:04:36.049Z,52.40
2023-05-22T00:07:04.080Z,50.80
2023-05-22T00:09:31.248Z,89.70
2023-05-22T00:11:58.188Z,115.10
2023-05-22T00:14:25.070Z,122.90
2023-05-22T00:16:52.059Z,136.00
2023-05-22T00:19:23.251Z,123.60
2023-05-22T00:21:51.495Z,119.00
2023-05-22T00:24:18.400Z,94.00
2023-05-22T00:26:45.690Z,95.50
2023-05-22T00:29:12.625Z,78.30
2023-05-22T00:31:39.560Z,63.90
2023-05-22T00:34:07.098Z,68.50
2023-05-22T00:36:34.059Z,67.50
2023-05-22T00:39:01.122Z,58.30
2023-05-22T00:41:28.070Z,54.00
2023-05-22T00:43:54.984Z,47.90
2023-05-22T00:46:23.074Z,46.60
2023-05-22T00:48:52.806Z,35.40
2023-05-22T00:51:23.547Z,45.20
2023-05-22T00:53:51.317Z,33.20
2023-05-22T00:56:24.495Z,37.40
2023-05-22T00:58:52.072Z,35.00
2023-05-22T01:01:19.022Z,28.90
2023-05-22T01:03:46.961Z,41.70
2023-05-22T01:06:14.980Z,40.50
2023-05-22T01:08:43.292Z,29.80
2023-05-22T01:11:22.442Z,17.20
2023-05-22T01:14:04.584Z,30.60
2023-05-22T01:16:48.673Z,36.20
2023-05-22T01:19:38.320Z,49.90
2023-05-22T01:22:25.265Z,32.00
2023-05-22T01:24:58.798Z,38.60
2023-05-22T01:27:56.175Z,46.10
2023-05-22T01:30:43.785Z,61.20
2023-05-22T01:33:14.215Z,54.80
2023-05-22T01:35:41.898Z,61.10
2023-05-22T01:38:09.179Z,55.30
2023-05-22T01:40:36.937Z,50.50
2023-05-22T01:43:04.736Z,46.60
2023-05-22T01:45:32.266Z,45.70
2023-05-22T01:47:59.825Z,47.60
2023-05-22T01:50:28.208Z,65.40
2023-05-22T01:53:19.665Z,65.80
2023-05-22T01:55:47.780Z,46.30
2023-05-22T01:58:31.967Z,39.50
2023-05-22T02:01:00.995Z,46.90
2023-05-22T02:03:31.346Z,40.30
2023-05-22T02:06:00.541Z,34.60
2023-05-22T02:08:27.867Z,39.90
2023-05-22T02:10:55.481Z,37.30
2023-05-22T02:13:22.923Z,31.90
2023-05-22T02:15:49.935Z,34.90
2023-05-22T02:18:16.911Z,37.70
2023-05-22T02:20:45.814Z,34.70
2023-05-22T02:23:12.712Z,32.90
2023-05-22T02:25:39.623Z,23.40
2023-05-22T02:28:06.548Z,28.10
2023-05-22T02:30:33.968Z,35.00
2023-05-22T02:33:01.541Z,49.50
2023-05-22T02:35:29.393Z,42.00
2023-05-22T02:37:56.801Z,32.30
2023-05-22T02:40:24.168Z,40.70
2023-05-22T02:42:51.869Z,32.80
2023-05-22T02:45:19.333Z,33.20
2023-05-22T02:47:46.751Z,43.20
2023-05-22T02:50:14.891Z,41.20
2023-05-22T02:52:42.886Z,45.10
2023-05-22T02:55:10.503Z,46.00
2023-05-22T02:57:37.939Z,39.80
2023-05-22T03:00:11.718Z,46.20
2023-05-22T03:02:39.003Z,50.40
2023-05-22T03:05:06.422Z,41.70
2023-05-22T03:07:35.128Z,36.00
2023-05-22T03:10:02.718Z,36.70
2023-05-22T03:12:30.070Z,38.50
2023-05-22T03:14:57.753Z,50.20
2023-05-22T03:17:25.669Z,51.30
2023-05-22T03:19:53.171Z,49.60
2023-05-22T03:22:20.484Z,54.10
2023-05-22T03:24:48.097Z,57.30
2023-05-22T03:27:17.349Z,51.40
2023-05-22T03:29:46.983Z,46.40
2023-05-22T03:32:14.947Z,44.90
2023-05-22T03:34:43.625Z,54.10
2023-05-22T03:37:10.989Z,54.20
2023-05-22T03:39:39.833Z,46.80
2023-05-22T03:42:20.650Z,61.00
2023-05-22T03:44:49.679Z,56.50
2023-05-22T03:47:17.796Z,52.10
2023-05-22T03:49:47.124Z,34.80
2023-05-22T03:52:14.460Z,41.40
2023-05-22T03:54:42.023Z,37.90
2023-05-22T03:57:09.532Z,28.60
2023-05-22T03:59:37.141Z,50.00
2023-05-22T04:02:05.674Z,97.30
2023-05-22T04:04:38.869Z,80.30
2023-05-22T04:07:08.554Z,56.50
2023-05-22T04:09:36.117Z,53.00
2023-05-22T04:12:03.870Z,42.80
2023-05-22T04:14:31.351Z,49.20
2023-05-22T04:16:59.581Z,46.60
2023-05-22T04:19:28.435Z,44.50
2023-05-22T04:21:58.041Z,27.70
2023-05-22T04:24:25.575Z,34.70
2023-05-22T04:26:53.080Z,42.40
2023-05-22T04:29:22.456Z,30.70
2023-05-22T04:31:49.937Z,23.50
2023-05-22T04:34:17.448Z,27.10
2023-05-22T04:36:48.239Z,19.00
2023-05-22T04:39:15.174Z,19.70
2023-05-22T04:41:42.454Z,30.60
2023-05-22T04:44:10.437Z,45.30
2023-05-22T04:46:37.769Z,33.80
2023-05-22T04:49:05.189Z,20.50
2023-05-22T04:51:33.374Z,22.60
2023-05-22T04:54:00.772Z,24.10
2023-05-22T04:56:36.293Z,25.20
2023-05-22T04:59:05.760Z,23.70
2023-05-22T05:01:35.376Z,31.70
2023-05-22T05:04:04.001Z,17.90
2023-05-22T05:06:31.646Z,29.10
2023-05-22T05:08:59.071Z,46.30
2023-05-22T05:11:26.347Z,40.80
2023-05-22T05:13:53.788Z,39.50
2023-05-22T05:16:21.242Z,37.20
2023-05-22T05:18:48.780Z,21.20
2023-05-22T05:21:16.294Z,27.40
2023-05-22T05:23:44.478Z,23.80
2023-05-22T05:26:11.866Z,30.20
2023-05-22T05:28:39.462Z,49.60
2023-05-22T05:31:10.848Z,61.80
2023-05-22T05:34:08.604Z,48.90
2023-05-22T05:36:52.766Z,32.30
2023-05-22T05:39:22.125Z,32.60
2023-05-22T05:41:49.892Z,31.00
2023-05-22T05:44:17.481Z,32.30
2023-05-22T05:46:44.890Z,44.90
2023-05-22T05:49:13.257Z,36.90
2023-05-22T05:51:41.640Z,32.00
2023-05-22T05:54:09.232Z,27.50
2023-05-22T05:56:37.927Z,27.30
2023-05-22T05:59:05.269Z,35.50
2023-05-22T06:01:40.063Z,31.30
2023-05-22T06:04:13.022Z,35.80
2023-05-22T06:06:40.530Z,34.10
2023-05-22T06:09:10.721Z,31.60
2023-05-22T06:12:13.672Z,42.40
2023-05-22T06:14:44.299Z,43.70
2023-05-22T06:17:12.805Z,41.50
2023-05-22T06:19:42.370Z,308.50
2023-05-22T06:22:09.969Z,149.10
2023-05-22T06:24:38.592Z,314.70
2023-05-22T06:27:10.844Z,65.50
2023-05-22T06:29:39.116Z,31.90
2023-05-22T06:32:07.505Z,30.40
2023-05-22T06:34:36.676Z,23.80
2023-05-22T06:37:04.431Z,37.30
2023-05-22T06:39:36.379Z,39.20
2023-05-22T06:42:28.727Z,22.90
2023-05-22T06:45:22.436Z,24.60
2023-05-22T06:48:02.761Z,17.50
2023-05-22T06:50:31.635Z,22.60
2023-05-22T06:52:59.128Z,20.60
2023-05-22T06:55:26.529Z,23.80
2023-05-22T06:58:02.498Z,29.90
2023-05-22T07:00:31.148Z,24.60
2023-05-22T07:03:07.736Z,46.70
2023-05-22T07:05:59.721Z,31.20
2023-05-22T07:08:29.695Z,32.90
2023-05-22T07:10:57.932Z,54.40
2023-05-22T07:13:25.201Z,53.00
2023-05-22T07:15:52.617Z,47.40
2023-05-22T07:18:20.027Z,49.10
2023-05-22T07:20:47.703Z,34.10
2023-05-22T07:23:18.332Z,29.20
2023-05-22T07:25:45.768Z,30.50
2023-05-22T07:28:14.170Z,33.20
2023-05-22T07:31:00.655Z,35.70
2023-05-22T07:33:28.145Z,32.70
2023-05-22T07:35:55.919Z,57.10
2023-05-22T07:38:23.818Z,52.80
2023-05-22T07:40:57.288Z,41.50
2023-05-22T07:43:25.092Z,37.30
2023-05-22T07:45:54.384Z,45.60
2023-05-22T07:48:24.440Z,30.80
2023-05-22T07:50:51.907Z,39.80
2023-05-22T07:53:19.401Z,33.40
2023-05-22T07:55:49.259Z,43.80
2023-05-22T07:58:16.935Z,40.70
2023-05-22T08:00:45.464Z,38.20
2023-05-22T08:03:13.723Z,51.20
2023-05-22T08:05:41.730Z,53.80
2023-05-22T08:08:10.930Z,53.70
2023-05-22T08:13:08.894Z,53.20
2023-05-22T08:15:36.355Z,53.30
2023-05-22T08:18:03.915Z,46.70
2023-05-22T08:20:31.481Z,63.50
2023-05-22T08:22:59.428Z,57.60
2023-05-22T08:25:26.882Z,60.30
2023-05-22T08:27:54.180Z,46.30
2023-05-22T08:30:21.510Z,49.90
2023-05-22T08:32:49.078Z,30.70
2023-05-22T08:35:16.691Z,28.30
2023-05-22T08:37:44.051Z,26.40
2023-05-22T08:40:13.328Z,21.70
2023-05-22T08:42:41.057Z,23.40
2023-05-22T08:45:10.120Z,24.90
2023-05-22T08:47:38.615Z,21.90
2023-05-22T08:50:07.468Z,17.10
2023-05-22T08:52:43.260Z,20.00
2023-05-22T08:55:10.791Z,22.40
2023-05-22T08:57:38.140Z,27.30
2023-05-22T09:00:07.922Z,21.50
2023-05-22T09:02:36.180Z,38.60
2023-05-22T09:05:05.522Z,25.50
2023-05-22T09:07:33.111Z,44.70
2023-05-22T09:10:01.408Z,38.60
2023-05-22T09:12:28.855Z,28.90
2023-05-22T09:14:56.207Z,25.60
2023-05-22T09:17:23.830Z,16.10
2023-05-22T09:19:51.168Z,18.80
2023-05-22T09:22:18.832Z,17.50
2023-05-22T09:24:47.465Z,24.90
2023-05-22T09:27:14.953Z,26.70
2023-05-22T09:29:51.126Z,23.00
2023-05-22T09:32:19.102Z,19.20
2023-05-22T09:34:47.960Z,21.20
2023-05-22T09:37:16.043Z,17.70
2023-05-22T09:39:45.080Z,21.50
2023-05-22T09:42:15.543Z,31.10
2023-05-22T09:44:44.536Z,19.90
2023-05-22T09:47:12.386Z,27.60
2023-05-22T09:49:44.041Z,21.70
2023-05-22T09:52:15.391Z,22.60
2023-05-22T09:54:56.061Z,19.90
2023-05-22T09:57:24.855Z,12.80
2023-05-22T09:59:54.658Z,15.30
2023-05-22T10:02:26.606Z,7.10
2023-05-22T10:04:55.047Z,7.90
2023-05-22T10:07:23.549Z,13.80
2023-05-22T10:10:04.613Z,7.90
2023-05-22T10:12:33.462Z,14.70
2023-05-22T10:15:01.626Z,4.40
2023-05-22T10:17:29.444Z,3.60
2023-05-22T10:19:57.032Z,4.30
2023-05-22T10:22:26.183Z,7.40
2023-05-22T10:24:54.460Z,5.40
2023-05-22T10:27:21.787Z,3.60
2023-05-22T10:30:34.475Z,10.40
2023-05-22T10:33:24.193Z,8.60
2023-05-22T10:35:57.062Z,9.40
2023-05-22T10:38:43.424Z,8.10
2023-05-22T10:41:11.072Z,5.20
2023-05-22T10:43:43.096Z,8.00
2023-05-22T10:46:12.588Z,3.80
2023-05-22T10:48:41.449Z,5.30
2023-05-22T10:51:09.288Z,2.80
2023-05-22T10:53:37.145Z,6.20
2023-05-22T10:56:11.951Z,9.80
2023-05-22T10:58:39.473Z,4.50
2023-05-22T11:01:15.399Z,9.20
2023-05-22T11:04:07.253Z,10.00
2023-05-22T11:06:49.962Z,7.70
2023-05-22T11:09:24.316Z,8.10
2023-05-22T11:12:31.223Z,11.80
2023-05-22T11:15:06.341Z,17.40
2023-05-22T11:17:40.396Z,16.20
2023-05-22T11:20:26.473Z,10.80
2023-05-22T11:23:08.130Z,12.00
2023-05-22T11:25:37.683Z,8.80
2023-05-22T11:28:06.058Z,8.00
2023-05-22T11:30:34.370Z,9.90
2023-05-22T11:33:02.090Z,8.20
2023-05-22T11:35:30.122Z,13.80
2023-05-22T11:37:58.126Z,25.90
2023-05-22T11:40:29.692Z,13.60
2023-05-22T11:42:57.317Z,14.10
2023-05-22T11:45:24.862Z,18.10
2023-05-22T11:47:52.391Z,12.30
2023-05-22T11:50:33.416Z,12.30
2023-05-22T11:55:31.167Z,9.60
2023-05-22T11:57:59.508Z,13.30
2023-05-22T12:00:28.008Z,9.90
2023-05-22T12:02:56.086Z,11.30
2023-05-22T12:05:24.334Z,5.20
2023-05-22T12:07:52.295Z,11.80
2023-05-22T12:10:20.231Z,9.60
2023-05-22T12:12:48.323Z,8.40
2023-05-22T12:15:20.547Z,13.70
2023-05-22T12:17:48.887Z,20.30
2023-05-22T12:20:17.019Z,8.00
2023-05-22T12:22:45.144Z,23.10
2023-05-22T12:25:15.150Z,43.80
2023-05-22T12:27:45.417Z,29.50
2023-05-22T12:30:14.178Z,33.70
2023-05-22T12:32:47.078Z,20.40
2023-05-22T12:35:16.966Z,41.10
2023-05-22T12:37:49.623Z,23.40
2023-05-22T12:40:17.568Z,14.70
2023-05-22T12:42:45.672Z,19.40
2023-05-22T12:45:14.114Z,17.80
2023-05-22T12:47:42.290Z,8.20
2023-05-22T12:50:10.439Z,7.60
2023-05-22T12:52:38.357Z,12.10
2023-05-22T12:55:07.374Z,10.90
2023-05-22T12:57:35.359Z,12.00
2023-05-22T13:00:06.165Z,16.30
2023-05-22T13:02:34.155Z,9.10
2023-05-22T13:05:02.365Z,6.50
2023-05-22T13:07:30.248Z,12.30
2023-05-22T13:09:58.304Z,9.90
2023-05-22T13:12:27.541Z,8.70
2023-05-22T13:14:55.575Z,10.90
2023-05-22T13:17:23.426Z,7.90
2023-05-22T13:19:51.730Z,10.90
2023-05-22T13:22:19.796Z,6.40
2023-05-22T13:24:47.673Z,11.90
2023-05-22T13:27:16.547Z,8.60
2023-05-22T13:29:45.432Z,7.90
2023-05-22T13:32:13.989Z,4.30
2023-05-22T13:34:42.185Z,7.30
2023-05-22T13:37:10.307Z,13.00
2023-05-22T13:39:38.140Z,4.40
2023-05-22T13:42:06.243Z,4.60
2023-05-22T13:44:34.366Z,7.30
2023-05-22T13:47:02.357Z,6.10
2023-05-22T13:49:30.502Z,5.30
2023-05-22T13:51:58.421Z,2.50
2023-05-22T13:54:26.208Z,7.40
2023-05-22T13:56:54.233Z,6.50
2023-05-22T13:59:22.164Z,6.00
2023-05-22T14:01:50.230Z,11.20
2023-05-22T14:04:18.202Z,5.20
2023-05-22T14:06:46.178Z,6.90
2023-05-22T14:09:14.162Z,3.80
2023-05-22T14:11:42.056Z,3.20
2023-05-22T14:14:10.105Z,3.80
2023-05-22T14:16:38.203Z,3.30
2023-05-22T14:19:06.229Z,4.00
2023-05-22T14:21:34.128Z,7.80
2023-05-22T14:24:04.757Z,9.10
2023-05-22T14:26:32.721Z,8.50
2023-05-22T14:29:00.891Z,11.50
2023-05-22T14:31:31.620Z,9.30
2023-05-22T14:33:59.548Z,10.80
2023-05-22T14:36:27.616Z,12.30
2023-05-22T14:38:55.771Z,31.30
2023-05-22T14:41:23.597Z,35.90
2023-05-22T14:43:51.571Z,13.80
2023-05-22T14:46:19.478Z,11.30
2023-05-22T14:48:47.365Z,6.70
2023-05-22T14:51:15.285Z,12.30
2023-05-22T14:53:43.278Z,16.10
2023-05-22T14:56:11.675Z,47.80
2023-05-22T14:58:39.759Z,165.50
2023-05-22T15:01:07.706Z,72.30
2023-05-22T15:03:35.716Z,47.90
2023-05-22T15:06:03.972Z,112.50
2023-05-22T15:08:31.905Z,49.80
2023-05-22T15:10:59.788Z,83.80
2023-05-22T15:13:27.853Z,103.00
2023-05-22T15:15:56.057Z,25.60
2023-05-22T15:18:23.998Z,24.40
2023-05-22T15:20:52.046Z,35.00
2023-05-22T15:23:20.159Z,28.70
2023-05-22T15:25:48.733Z,34.20
2023-05-22T15:28:16.765Z,30.00
2023-05-22T15:30:45.045Z,27.00
2023-05-22T15:33:13.085Z,18.20
2023-05-22T15:35:42.234Z,18.90
2023-05-22T15:38:13.438Z,23.40
2023-05-22T15:40:41.977Z,30.00
2023-05-22T15:43:10.315Z,37.40
2023-05-22T15:45:38.690Z,32.50
2023-05-22T15:48:07.146Z,22.80
2023-05-22T15:50:35.201Z,19.70
2023-05-22T15:53:03.282Z,13.30
2023-05-22T15:55:31.225Z,15.40
2023-05-22T15:57:59.949Z,4.60
2023-05-22T16:00:27.983Z,16.40
2023-05-22T16:02:56.147Z,5.30
2023-05-22T16:05:24.123Z,13.40
2023-05-22T16:07:52.241Z,16.00
2023-05-22T16:10:20.405Z,9.50
2023-05-22T16:12:48.351Z,12.50
2023-05-22T16:15:16.458Z,6.90
2023-05-22T16:17:44.517Z,10.50
2023-05-22T16:20:12.650Z,20.50
2023-05-22T16:25:18.135Z,7.40
2023-05-22T16:27:46.259Z,9.80
2023-05-22T16:30:16.919Z,8.90
2023-05-22T16:32:45.735Z,6.20
2023-05-22T16:35:14.537Z,5.30
2023-05-22T16:37:42.403Z,8.80
2023-05-22T16:40:10.849Z,12.90
2023-05-22T16:42:38.898Z,6.90
2023-05-22T16:45:08.335Z,10.10
2023-05-22T16:47:36.497Z,11.10
2023-05-22T16:50:05.267Z,9.00
2023-05-22T16:52:33.084Z,10.30
2023-05-22T16:55:01.491Z,18.10
2023-05-22T16:57:29.500Z,18.20
2023-05-22T16:59:57.987Z,10.10
2023-05-22T17:02:26.690Z,14.90
2023-05-22T17:04:54.763Z,31.80
2023-05-22T17:07:22.699Z,44.90
2023-05-22T17:09:50.648Z,50.20
2023-05-22T17:12:18.602Z,41.80
2023-05-22T17:14:46.439Z,31.30
2023-05-22T17:17:14.543Z,46.50
2023-05-22T17:19:42.558Z,35.90
2023-05-22T17:22:10.573Z,41.60
2023-05-22T17:24:38.500Z,35.30
2023-05-22T17:27:06.861Z,25.80
2023-05-22T17:29:34.728Z,25.00
2023-05-22T17:32:04.970Z,15.20
2023-05-22T17:34:33.453Z,11.80
2023-05-22T17:37:01.332Z,5.70
2023-05-22T17:39:30.120Z,17.20
2023-05-22T17:41:59.684Z,6.20
2023-05-22T17:44:28.792Z,9.50
2023-05-22T17:46:56.812Z,13.90
2023-05-22T17:49:24.884Z,11.40
2023-05-22T17:51:52.733Z,20.70
2023-05-22T17:54:20.815Z,19.80
2023-05-22T17:56:48.824Z,20.80
2023-05-22T17:59:16.728Z,26.70
2023-05-22T18:01:44.845Z,25.00
2023-05-22T18:04:12.767Z,19.20
2023-05-22T18:06:40.715Z,29.80
2023-05-22T18:09:08.704Z,27.10
2023-05-22T18:11:36.606Z,38.10
2023-05-22T18:14:04.844Z,41.50
2023-05-22T18:16:32.950Z,38.50
2023-05-22T18:19:01.219Z,25.40
2023-05-22T18:21:29.247Z,33.20
2023-05-22T18:23:57.399Z,27.30
2023-05-22T18:26:25.458Z,32.20
2023-05-22T18:28:53.832Z,25.00
2023-05-22T18:31:22.781Z,30.70
2023-05-22T18:33:50.776Z,71.80
2023-05-22T18:36:18.858Z,60.50
2023-05-22T18:38:46.782Z,51.30
2023-05-22T18:41:14.901Z,64.60
2023-05-22T18:43:43.478Z,44.60
2023-05-22T18:46:11.394Z,31.00
2023-05-22T18:48:39.379Z,27.70
2023-05-22T18:51:07.263Z,38.30
2023-05-22T18:53:35.226Z,26.90
2023-05-22T18:56:02.741Z,30.60
2023-05-22T18:58:30.201Z,40.80
2023-05-22T19:00:58.054Z,42.00
2023-05-22T19:03:26.117Z,54.00
2023-05-22T19:05:58.366Z,52.60
2023-05-22T19:08:27.800Z,73.30
2023-05-22T19:10:58.828Z,96.10
2023-05-22T19:13:26.820Z,99.30
2023-05-22T19:15:55.604Z,89.40
2023-05-22T19:18:24.527Z,103.10
2023-05-22T19:20:52.186Z,75.60
2023-05-22T19:23:19.700Z,69.80
2023-05-22T19:25:49.721Z,56.90
2023-05-22T19:28:17.681Z,68.80
2023-05-22T19:30:46.188Z,85.90
2023-05-22T19:33:14.971Z,63.50
2023-05-22T19:35:42.517Z,69.60
2023-05-22T19:38:09.910Z,72.70
2023-05-22T19:40:37.337Z,75.50
2023-05-22T19:43:05.290Z,64.60
2023-05-22T19:45:33.725Z,81.70
2023-05-22T19:48:01.209Z,62.80
2023-05-22T19:50:28.635Z,61.60
2023-05-22T19:52:56.443Z,83.80
2023-05-22T19:55:24.976Z,74.40
2023-05-22T19:57:52.714Z,46.50
2023-05-22T20:00:21.225Z,41.70
2023-05-22T20:02:49.104Z,37.00
2023-05-22T20:05:18.098Z,38.30
2023-05-22T20:07:47.180Z,34.60
2023-05-22T20:10:14.637Z,23.40
2023-05-22T20:12:42.178Z,29.50
2023-05-22T20:15:10.798Z,18.80
2023-05-22T20:17:41.870Z,22.20
2023-05-22T20:20:11.100Z,40.00
2023-05-22T20:22:39.013Z,36.70
2023-05-22T20:25:07.447Z,27.80
2023-05-22T20:27:35.453Z,47.50
2023-05-22T20:30:03.757Z,39.60
2023-05-22T20:32:32.595Z,33.60
2023-05-22T20:35:00.760Z,37.60
2023-05-22T20:37:29.697Z,76.50
2023-05-22T20:40:03.688Z,50.30
2023-05-22T20:42:32.257Z,36.90
2023-05-22T20:45:00.205Z,45.50
2023-05-22T20:47:28.125Z,29.50
2023-05-22T20:49:56.132Z,175.70
2023-05-22T20:52:24.738Z,47.30
2023-05-22T20:54:52.569Z,72.90
2023-05-22T20:57:20.540Z,26.90
2023-05-22T20:59:48.294Z,68.80
2023-05-22T21:02:18.426Z,23.10
2023-05-22T21:04:46.379Z,18.40
2023-05-22T21:07:14.239Z,11.60
2023-05-22T21:09:42.135Z,21.30
2023-05-22T21:12:10.172Z,30.40
2023-05-22T21:14:38.028Z,41.50
2023-05-22T21:17:06.596Z,46.10
2023-05-22T21:19:34.712Z,34.90
2023-05-22T21:22:02.936Z,46.20
2023-05-22T21:24:33.061Z,42.40
2023-05-22T21:27:01.018Z,59.50
2023-05-22T21:29:29.055Z,33.70
2023-05-22T21:31:57.188Z,49.50
2023-05-22T21:34:25.186Z,56.30
2023-05-22T21:36:52.941Z,55.50
2023-05-22T21:39:20.873Z,44.90
2023-05-22T21:41:49.991Z,56.70
2023-05-22T21:44:18.658Z,67.10
2023-05-22T21:46:46.633Z,48.50
2023-05-22T21:49:15.027Z,42.10
2023-05-22T21:51:42.909Z,58.00
2023-05-22T21:54:10.838Z,30.80
2023-05-22T21:56:38.848Z,35.40
2023-05-22T21:59:06.842Z,25.30
2023-05-22T22:01:34.935Z,19.60
2023-05-22T22:04:04.463Z,14.30
2023-05-22T22:06:32.499Z,9.10
2023-05-22T22:09:00.394Z,12.20
2023-05-22T22:11:28.424Z,19.70
2023-05-22T22:13:56.495Z,18.70
2023-05-22T22:16:24.586Z,15.60
2023-05-22T22:18:52.701Z,21.20
2023-05-22T22:21:20.812Z,13.60
2023-05-22T22:23:48.696Z,8.60
2023-05-22T22:26:16.529Z,10.50
2023-05-22T22:28:44.539Z,10.80
2023-05-22T22:31:12.625Z,9.60
2023-05-22T22:33:40.731Z,6.20
2023-05-22T22:36:09.064Z,8.30
2023-05-22T22:38:38.714Z,15.20
2023-05-22T22:41:09.518Z,11.70
2023-05-22T22:43:37.466Z,13.30
2023-05-22T22:46:05.535Z,7.00
2023-05-22T22:48:33.958Z,9.50
2023-05-22T22:51:02.561Z,5.00
2023-05-22T22:53:30.466Z,13.80
2023-05-22T22:55:59.405Z,9.90
2023-05-22T22:58:27.498Z,10.90
2023-05-22T23:00:55.413Z,6.90
2023-05-22T23:03:23.368Z,6.80
2023-05-22T23:05:51.297Z,7.20
2023-05-22T23:08:19.372Z,11.60
2023-05-22T23:10:47.404Z,7.70
2023-05-22T23:13:15.366Z,7.40
2023-05-22T23:15:43.501Z,8.20
2023-05-22T23:18:13.744Z,10.90
2023-05-22T23:20:41.780Z,13.60
2023-05-22T23:23:09.726Z,13.60
2023-05-22T23:25:37.694Z,6.40
2023-05-22T23:28:06.858Z,13.50
2023-05-22T23:30:34.280Z,9.80
2023-05-22T23:33:02.941Z,19.60
2023-05-22T23:35:31.295Z,23.00
2023-05-22T23:37:59.314Z,18.40
2023-05-22T23:40:27.257Z,19.30
2023-05-22T23:42:55.113Z,10.10
2023-05-22T23:45:22.967Z,15.80
2023-05-22T23:47:50.812Z,8.10
2023-05-22T23:50:18.720Z,14.10
2023-05-22T23:52:48.448Z,8.40
2023-05-22T23:55:16.401Z,7.80
2023-05-22T23:57:44.237Z,16.40
